WetterOnline ( https://www.wetteronline.de )

Wetter aktuell Bad Homburg

Aktuelles Wetter: Kleiner Feldberg (802m)

6-stündlich | Neueste Meldungen
Ortszeit Temperatur Wetter
Sa, 18.01. 1:00 0.4° C bewölkt
Fr, 17.01. 19:00 3.2° C Nebel
Fr, 17.01. 13:00 3.2° C bedeckt
Fr, 17.01. 7:00 2.6° C wolkenlos
Fr, 17.01. 1:00 4.5° C wolkenlos
Do, 16.01. 19:00 5.3° C wolkenlos
Do, 16.01. 13:00 6.3° C leicht bewölkt
Do, 16.01. 7:00 4.8° C Nebel
Ortszeit Temperatur Wetter
Sa, 18.01. 4:30 -0.3° C Nebel
Sa, 18.01. 4:20 -0.3° C Nebel
Sa, 18.01. 4:10 -0.3° C bewölkt
Sa, 18.01. 4:00 -0.4° C bewölkt
Sa, 18.01. 3:50 -0.4° C bewölkt
Sa, 18.01. 3:40 -0.3° C bewölkt
Sa, 18.01. 3:30 -0.4° C wolkig
Sa, 18.01. 3:00 -0.5° C bewölkt
Ortszeit Relative Feuchte Sichtweite
Sa, 18.01. 1:00 98% 26 km
Fr, 17.01. 19:00 100% <100 m
Fr, 17.01. 13:00 95% 17 km
Fr, 17.01. 7:00 94% 22 km
Fr, 17.01. 1:00 86% 40 km
Do, 16.01. 19:00 89% 35 km
Do, 16.01. 13:00 93% 27 km
Do, 16.01. 7:00 100% 100 m
Ortszeit Relative Feuchte Sichtweite
Sa, 18.01. 4:30 100% 0.3 km
Sa, 18.01. 4:20 100% -
Sa, 18.01. 4:10 99% -
Sa, 18.01. 4:00 98% 23 km
Sa, 18.01. 3:50 98% -
Sa, 18.01. 3:40 99% -
Sa, 18.01. 3:30 98% 23 km
Sa, 18.01. 3:00 99% 16 km
Ortszeit Niederschlagsmenge Niederschlagsart
Sa, 18.01. 1:00 0.1 l/m2 in 6 Std. -
Fr, 17.01. 19:00 0.1 l/m2 in 12 Std. Regen
Fr, 17.01. 13:00 0.0 l/m2 in 6 Std. -
Fr, 17.01. 7:00 0.0 l/m2 in 12 Std. -
Fr, 17.01. 1:00 0.0 l/m2 in 6 Std. -
Do, 16.01. 19:00 0.0 l/m2 in 12 Std. -
Do, 16.01. 13:00 0.0 l/m2 in 6 Std. -
Do, 16.01. 7:00 2 l/m2 in 12 Std. Regen
Ortszeit Niederschlagsmenge Niederschlagsart
Sa, 18.01. 4:30 0.0 l/m2 in 1 Std. -
Sa, 18.01. 4:20 keine Meldung -
Sa, 18.01. 4:10 keine Meldung -
Sa, 18.01. 4:00 0.0 l/m2 in 1 Std. -
Sa, 18.01. 3:50 keine Meldung -
Sa, 18.01. 3:40 keine Meldung -
Sa, 18.01. 3:30 0.0 l/m2 in 1 Std. -
Sa, 18.01. 3:00 0.0 l/m2 in 1 Std. -
Ortszeit Stärke Spitze Richtung
km/h Bft. km/h Grad Sektor
Sa, 18.01. 1:00 15 3 43 290° W
Fr, 17.01. 19:00 13 3 44 250° W
Fr, 17.01. 13:00 18 3 40 230° SW
Fr, 17.01. 7:00 18 3 40 200° S
Fr, 17.01. 1:00 18 3 43 160° S
Do, 16.01. 19:00 14 3 32 170° S
Do, 16.01. 13:00 13 3 30 180° S
Do, 16.01. 7:00 7 2 29 290° W
Ortszeit Stärke Spitze Richtung
km/h Bft. km/h Grad Sektor
Sa, 18.01. 4:30 11 2 25 260° W
Sa, 18.01. 4:20 11 2 - 260° W
Sa, 18.01. 4:10 9 2 - 260° W
Sa, 18.01. 4:00 13 3 26 270° W
Sa, 18.01. 3:50 13 3 - 270° W
Sa, 18.01. 3:40 13 3 - 270° W
Sa, 18.01. 3:30 13 3 26 280° W
Sa, 18.01. 3:00 15 3 33 290° W
Ortszeit Untergrenze Bedeckung Gattung
total tief tief mittel hoch
Sa, 18.01. 1:00 150 m 7/8 7/8 - - -
Fr, 17.01. 19:00 <30 m 8/8 0/8 - - -
Fr, 17.01. 13:00 60 m 8/8 8/8 - - -
Fr, 17.01. 7:00 - 0/8 0/8 - - -
Fr, 17.01. 1:00 - 0/8 0/8 - - -
Do, 16.01. 19:00 - 0/8 0/8 - - -
Do, 16.01. 13:00 60 m 2/8 1/8 - - -
Do, 16.01. 7:00 <30 m 8/8 0/8 - - -
Ortszeit Bedeckungsgrad in Achtel und Wolkenuntergrenze
Sa, 18.01. 4:30 6(<30m) 7(150m) 8(5400m)
Sa, 18.01. 4:20 6(<30m) 7(150m) 8(5400m)
Sa, 18.01. 4:10 5(30m) 6(150m) 8(5400m)
Sa, 18.01. 4:00 4(60m) 7(5100m) 8(5700m)
Sa, 18.01. 3:50 4(60m) 7(5100m) 8(5700m)
Sa, 18.01. 3:40 5(60m) 5(4200m) 8(5700m)
Sa, 18.01. 3:30 5(90m) 7(5700m) 7(6600m)
Sa, 18.01. 3:00 6(60m) 7(6300m) 7(6900m)
Ortszeit Stationsdruck (hPa) Tendenz (hPa in 3 Std.)
Sa, 18.01. 1:00 924 + 1,5
Fr, 17.01. 19:00 921 + 1,0
Fr, 17.01. 13:00 921 - 1,4
Fr, 17.01. 7:00 923 - 1,7
Fr, 17.01. 1:00 925 - 2,0
Do, 16.01. 19:00 929 - 0,2
Do, 16.01. 13:00 930 - 0,7
Do, 16.01. 7:00 929 + 1,2
Ortszeit Stationsdruck (hPa) Tendenz (hPa in 3 Std.)
Sa, 18.01. 4:30 925 + 1,3
Sa, 18.01. 4:20 925 keine Meldung
Sa, 18.01. 4:10 925 keine Meldung
Sa, 18.01. 4:00 925 + 1,1
Sa, 18.01. 3:50 925 keine Meldung
Sa, 18.01. 3:40 925 keine Meldung
Sa, 18.01. 3:30 925 + 1,1
Sa, 18.01. 3:00 924 + 0,7
Ortszeit Schneehöhe (cm)
Sa, 18.01. 1:00 0
Fr, 17.01. 19:00 0
Fr, 17.01. 13:00 0
Fr, 17.01. 7:00 0
Fr, 17.01. 1:00 0
Do, 16.01. 19:00 0
Do, 16.01. 13:00 0
Do, 16.01. 7:00 0
Ortszeit Schneehöhe (cm)
Sa, 18.01. 4:30 0
Sa, 18.01. 4:20 0
Sa, 18.01. 4:10 0
Sa, 18.01. 4:00 0
Sa, 18.01. 3:50 0
Sa, 18.01. 3:40 0
Sa, 18.01. 3:30 0
Sa, 18.01. 3:00 0
Link zu dieser Seite / Seite empfehlen

Das Wetter in ...